createdAt,value
2024-03-12T00:02:15.897Z,99338.50
2024-03-12T00:07:23.422Z,99337.50
2024-03-12T00:12:26.501Z,99344.81
2024-03-12T00:17:28.532Z,99354.44
2024-03-12T00:22:30.542Z,99363.25
2024-03-12T00:27:32.622Z,99371.56
2024-03-12T00:32:34.757Z,99369.03
2024-03-12T00:37:37.373Z,99371.31
2024-03-12T00:42:43.063Z,99380.97
2024-03-12T00:47:45.213Z,99368.13
2024-03-12T00:52:47.323Z,99377.69
2024-03-12T00:57:49.867Z,99381.09
2024-03-12T01:02:55.118Z,99372.47
2024-03-12T01:08:02.727Z,99375.91
2024-03-12T01:13:11.318Z,99374.66
2024-03-12T01:18:14.359Z,99385.84
2024-03-12T01:23:16.473Z,99385.66
2024-03-12T01:28:19.100Z,99374.75
2024-03-12T01:33:21.156Z,99379.41
2024-03-12T01:38:23.143Z,99382.06
2024-03-12T01:43:29.242Z,99378.66
2024-03-12T01:48:32.961Z,99376.22
2024-03-12T01:53:35.223Z,99376.06
2024-03-12T01:58:37.717Z,99381.81
2024-03-12T02:03:39.740Z,99389.34
2024-03-12T02:08:42.248Z,99391.69
2024-03-12T02:13:44.426Z,99393.34
2024-03-12T02:18:46.495Z,99396.34
2024-03-12T02:23:48.585Z,99399.84
2024-03-12T02:28:51.251Z,99398.72
2024-03-12T02:33:53.965Z,99407.88
2024-03-12T02:38:55.993Z,99407.88
2024-03-12T02:43:58.012Z,99408.13
2024-03-12T02:49:00.148Z,99417.72
2024-03-12T02:54:06.296Z,99418.38
2024-03-12T02:59:13.137Z,99421.69
2024-03-12T03:04:15.125Z,99425.53
2024-03-12T03:09:17.367Z,99435.38
2024-03-12T03:14:19.390Z,99431.00
2024-03-12T03:19:22.116Z,99441.31
2024-03-12T03:24:24.201Z,99437.41
2024-03-12T03:29:32.770Z,99445.66
2024-03-12T03:34:34.985Z,99444.22
2024-03-12T03:39:37.453Z,99451.19
2024-03-12T03:44:39.511Z,99459.75
2024-03-12T03:49:41.575Z,99458.19
2024-03-12T03:54:43.794Z,99469.00
2024-03-12T03:59:46.338Z,99466.91
2024-03-12T04:04:48.409Z,99479.06
2024-03-12T04:09:50.460Z,99484.03
2024-03-12T04:14:52.493Z,99489.25
2024-03-12T04:19:54.480Z,99489.31
2024-03-12T04:24:56.504Z,99491.75
2024-03-12T04:29:58.835Z,99504.28
2024-03-12T04:35:00.963Z,99506.25
2024-03-12T04:40:13.553Z,99516.47
2024-03-12T04:45:16.175Z,99516.25
2024-03-12T04:50:20.444Z,99523.63
2024-03-12T04:55:22.373Z,99531.88
2024-03-12T05:00:24.498Z,99536.69
2024-03-12T05:05:27.161Z,99542.88
2024-03-12T05:10:29.385Z,99548.84
2024-03-12T05:15:32.261Z,99554.59
2024-03-12T05:20:37.495Z,99559.69
2024-03-12T05:25:43.586Z,99568.16
2024-03-12T05:30:45.635Z,99570.38
2024-03-12T05:35:52.648Z,99579.75
2024-03-12T05:41:10.143Z,99589.06
2024-03-12T05:46:31.038Z,99589.53
2024-03-12T05:51:39.285Z,99589.19
2024-03-12T05:56:41.459Z,99597.84
2024-03-12T06:01:43.686Z,99603.91
2024-03-12T06:06:46.825Z,99609.94
2024-03-12T06:11:48.875Z,99618.69
2024-03-12T06:16:51.011Z,99624.72
2024-03-12T06:21:53.105Z,99622.13
2024-03-12T06:26:55.680Z,99622.63
2024-03-12T06:31:58.768Z,99630.38
2024-03-12T06:37:00.854Z,99643.81
2024-03-12T06:42:08.523Z,99646.47
2024-03-12T06:47:11.640Z,99655.31
2024-03-12T06:52:13.683Z,99663.78
2024-03-12T06:57:18.326Z,99673.72
2024-03-12T07:02:20.729Z,99670.66
2024-03-12T07:07:24.664Z,99678.13
2024-03-12T07:12:26.899Z,99680.75
2024-03-12T07:17:31.544Z,99695.63
2024-03-12T07:22:33.933Z,99696.56
2024-03-12T07:27:36.472Z,99699.19
2024-03-12T07:32:39.232Z,99703.75
2024-03-12T07:37:42.612Z,99703.38
2024-03-12T07:42:45.975Z,99708.34
2024-03-12T07:47:48.213Z,99717.44
2024-03-12T07:52:50.380Z,99724.34
2024-03-12T07:57:52.414Z,99732.28
2024-03-12T08:02:54.748Z,99718.94
2024-03-12T08:07:56.746Z,99728.19
2024-03-12T08:12:58.813Z,99726.97
2024-03-12T08:18:10.118Z,99739.22
2024-03-12T08:23:21.052Z,99749.59
2024-03-12T08:28:23.180Z,99747.75
2024-03-12T08:33:25.449Z,99759.91
2024-03-12T08:38:29.896Z,99762.44
2024-03-12T08:43:32.024Z,99763.47
2024-03-12T08:48:35.168Z,99768.03
2024-03-12T08:53:37.265Z,99772.25
2024-03-12T08:58:39.334Z,99774.06
2024-03-12T09:03:46.509Z,99790.66
2024-03-12T09:08:50.785Z,99787.69
2024-03-12T09:13:53.034Z,99790.84
2024-03-12T09:18:55.158Z,99794.94
2024-03-12T09:24:01.987Z,99800.19
2024-03-12T09:29:07.208Z,99805.78
2024-03-12T09:34:13.601Z,99814.66
2024-03-12T09:39:18.400Z,99818.09
2024-03-12T09:44:23.903Z,99820.66
2024-03-12T09:49:26.744Z,99828.22
2024-03-12T09:54:29.750Z,99832.69
2024-03-12T09:59:33.006Z,99832.16
2024-03-12T10:04:36.075Z,99815.13
2024-03-12T10:09:39.291Z,99815.91
2024-03-12T10:14:45.870Z,99832.59
2024-03-12T10:19:50.465Z,99824.50
2024-03-12T10:24:53.417Z,99828.78
2024-03-12T10:29:55.477Z,99827.06
2024-03-12T10:34:57.725Z,99833.88
2024-03-12T10:40:16.904Z,99835.81
2024-03-12T10:45:19.489Z,99827.97
2024-03-12T10:50:24.379Z,99825.25
2024-03-12T10:55:26.606Z,99824.63
2024-03-12T11:00:31.630Z,99821.28
2024-03-12T11:05:33.969Z,99824.31
2024-03-12T11:10:38.208Z,99820.03
2024-03-12T11:15:41.474Z,99810.91
2024-03-12T11:20:44.485Z,99810.59
2024-03-12T11:25:50.558Z,99820.97
2024-03-12T11:30:56.033Z,99824.13
2024-03-12T11:35:58.750Z,99819.97
2024-03-12T11:41:03.950Z,99821.81
2024-03-12T11:46:10.029Z,99831.47
2024-03-12T11:51:15.292Z,99826.34
2024-03-12T11:56:24.797Z,99830.78
2024-03-12T12:01:33.342Z,99828.31
2024-03-12T12:06:37.144Z,99829.47
2024-03-12T12:11:40.214Z,99824.31
2024-03-12T12:16:43.320Z,99832.09
2024-03-12T12:21:46.606Z,99824.38
2024-03-12T12:26:49.035Z,99823.91
2024-03-12T12:31:54.247Z,99820.31
2024-03-12T12:36:57.348Z,99815.72
2024-03-12T12:42:00.464Z,99814.44
2024-03-12T12:47:04.296Z,99817.31
2024-03-12T12:52:06.536Z,99811.59
2024-03-12T12:57:11.996Z,99802.44
2024-03-12T13:02:16.114Z,99796.81
2024-03-12T13:07:32.435Z,99785.25
2024-03-12T13:12:34.786Z,99785.72
2024-03-12T13:17:36.874Z,99787.16
2024-03-12T13:22:39.142Z,99787.94
2024-03-12T13:27:42.007Z,99771.03
2024-03-12T13:32:44.492Z,99782.00
2024-03-12T13:37:46.932Z,99790.56
2024-03-12T13:42:49.507Z,99789.03
2024-03-12T13:47:51.788Z,99799.75
2024-03-12T13:52:54.023Z,99807.97
2024-03-12T13:57:57.605Z,99809.13
2024-03-12T14:03:01.834Z,99813.19
2024-03-12T14:08:04.418Z,99815.91
2024-03-12T14:13:06.730Z,99817.69
2024-03-12T14:18:09.818Z,99817.94
2024-03-12T14:23:11.986Z,99817.53
2024-03-12T14:28:14.142Z,99826.22
2024-03-12T14:33:16.653Z,99824.06
2024-03-12T14:38:19.315Z,99826.75
2024-03-12T14:43:21.481Z,99832.19
2024-03-12T14:48:23.570Z,99831.16
2024-03-12T14:53:25.699Z,99825.41
2024-03-12T14:58:28.766Z,99830.34
2024-03-12T15:03:31.824Z,99834.13
2024-03-12T15:08:34.022Z,99831.84
2024-03-12T15:13:37.410Z,99833.13
2024-03-12T15:18:40.793Z,99833.66
2024-03-12T15:23:42.924Z,99827.50
2024-03-12T15:28:44.949Z,99822.16
2024-03-12T15:33:47.271Z,99830.19
2024-03-12T15:38:49.688Z,99829.47
2024-03-12T15:43:51.799Z,99826.38
2024-03-12T15:48:54.358Z,99825.19
2024-03-12T15:53:56.751Z,99824.38
2024-03-12T15:58:59.083Z,99825.09
2024-03-12T16:04:01.423Z,99823.00
2024-03-12T16:09:03.821Z,99824.22
2024-03-12T16:14:12.592Z,99830.47
2024-03-12T16:19:17.875Z,99833.88
2024-03-12T16:24:20.125Z,99841.25
2024-03-12T16:29:22.361Z,99834.97
2024-03-12T16:34:27.617Z,99834.53
2024-03-12T16:39:30.121Z,99835.44
2024-03-12T16:44:32.254Z,99833.88
2024-03-12T16:49:39.377Z,99834.84
2024-03-12T16:54:41.681Z,99839.59
2024-03-12T16:59:44.233Z,99839.63
2024-03-12T17:04:46.644Z,99845.75
2024-03-12T17:09:48.970Z,99845.69
2024-03-12T17:14:51.318Z,99847.47
2024-03-12T17:19:53.864Z,99846.72
2024-03-12T17:24:56.820Z,99846.72
2024-03-12T17:30:02.602Z,99853.59
2024-03-12T17:35:07.207Z,99849.13
2024-03-12T17:40:15.324Z,99842.38
2024-03-12T17:45:17.974Z,99850.22
2024-03-12T17:50:22.052Z,99865.75
2024-03-12T17:55:24.647Z,99858.66
2024-03-12T18:00:27.185Z,99869.09
2024-03-12T18:05:29.449Z,99868.59
2024-03-12T18:10:34.418Z,99869.06
2024-03-12T18:15:36.979Z,99870.81
2024-03-12T18:20:42.456Z,99871.56
2024-03-12T18:25:44.722Z,99876.88
2024-03-12T18:30:47.091Z,99878.75
2024-03-12T18:35:51.249Z,99875.28
2024-03-12T18:40:54.735Z,99883.38
2024-03-12T18:45:56.861Z,99883.63
2024-03-12T18:50:59.763Z,99884.28
2024-03-12T18:56:02.268Z,99880.97
2024-03-12T19:01:05.245Z,99892.47
2024-03-12T19:06:19.057Z,99894.63
2024-03-12T19:11:28.320Z,99893.28
2024-03-12T19:16:35.700Z,99895.91
2024-03-12T19:21:38.075Z,99891.94
2024-03-12T19:26:40.516Z,99892.19
2024-03-12T19:31:43.368Z,99896.50
2024-03-12T19:36:47.431Z,99894.31
2024-03-12T19:41:49.880Z,99887.41
2024-03-12T19:46:52.132Z,99882.09
2024-03-12T19:51:54.428Z,99890.34
2024-03-12T19:56:58.867Z,99887.41
2024-03-12T20:02:01.199Z,99888.06
2024-03-12T20:07:03.592Z,99878.47
2024-03-12T20:12:08.910Z,99881.34
2024-03-12T20:17:11.049Z,99881.66
2024-03-12T20:22:13.134Z,99886.03
2024-03-12T20:27:15.344Z,99879.28
2024-03-12T20:32:17.781Z,99880.06
2024-03-12T20:37:21.297Z,99876.97
2024-03-12T20:42:24.123Z,99874.69
2024-03-12T20:47:26.218Z,99877.19
2024-03-12T20:52:29.008Z,99877.34
2024-03-12T20:57:32.454Z,99871.19
2024-03-12T21:02:34.472Z,99872.16
2024-03-12T21:07:36.578Z,99863.13
2024-03-12T21:12:40.371Z,99859.31
2024-03-12T21:17:44.366Z,99853.88
2024-03-12T21:22:46.612Z,99853.34
2024-03-12T21:27:50.187Z,99846.28
2024-03-12T21:32:53.981Z,99839.75
2024-03-12T21:37:57.008Z,99835.69
2024-03-12T21:43:00.040Z,99830.63
2024-03-12T21:48:02.720Z,99828.69
2024-03-12T21:53:09.378Z,99822.63
2024-03-12T21:58:11.976Z,99825.00
2024-03-12T22:03:14.230Z,99820.53
2024-03-12T22:08:17.385Z,99824.22
2024-03-12T22:13:27.957Z,99822.72
2024-03-12T22:18:35.832Z,99827.59
2024-03-12T22:23:40.436Z,99817.19
2024-03-12T22:28:43.233Z,99818.81
2024-03-12T22:33:45.266Z,99821.53
2024-03-12T22:38:50.814Z,99821.53
2024-03-12T22:43:53.208Z,99824.16
2024-03-12T22:48:55.580Z,99813.91
2024-03-12T22:53:57.775Z,99818.16
2024-03-12T22:59:00.984Z,99812.06
2024-03-12T23:04:05.900Z,99819.53
2024-03-12T23:09:09.315Z,99815.03
2024-03-12T23:14:11.319Z,99806.75
2024-03-12T23:19:14.438Z,99808.06
2024-03-12T23:24:16.622Z,99793.31
2024-03-12T23:29:18.614Z,99789.31
2024-03-12T23:34:22.429Z,99787.22
2024-03-12T23:39:26.390Z,99779.00
2024-03-12T23:44:36.246Z,99779.31
2024-03-12T23:49:38.527Z,99789.25
2024-03-12T23:54:42.087Z,99789.88
2024-03-12T23:59:45.914Z,99793.50
